sensor_id;sensor_type;location;lat;lon;timestamp;P1;durP1;ratioP1;P2;durP2;ratioP2
64667;SDS011;51077;42.716;23.344;2023-09-07T00:00:41;12.07;;;7.13;;
64667;SDS011;51077;42.716;23.344;2023-09-07T00:03:07;9.30;;;7.20;;
64667;SDS011;51077;42.716;23.344;2023-09-07T00:05:32;10.33;;;6.87;;
64667;SDS011;51077;42.716;23.344;2023-09-07T00:07:57;10.07;;;6.70;;
64667;SDS011;51077;42.716;23.344;2023-09-07T00:10:23;11.50;;;6.63;;
64667;SDS011;51077;42.716;23.344;2023-09-07T00:12:50;11.48;;;7.32;;
64667;SDS011;51077;42.716;23.344;2023-09-07T00:15:18;12.20;;;7.88;;
64667;SDS011;51077;42.716;23.344;2023-09-07T00:17:45;8.90;;;6.63;;
64667;SDS011;51077;42.716;23.344;2023-09-07T00:20:10;9.17;;;7.67;;
64667;SDS011;51077;42.716;23.344;2023-09-07T00:22:36;9.10;;;7.23;;
64667;SDS011;51077;42.716;23.344;2023-09-07T00:25:02;9.80;;;6.60;;
64667;SDS011;51077;42.716;23.344;2023-09-07T00:27:29;8.32;;;6.85;;
64667;SDS011;51077;42.716;23.344;2023-09-07T00:29:55;9.40;;;7.43;;
64667;SDS011;51077;42.716;23.344;2023-09-07T00:32:20;9.83;;;7.93;;
64667;SDS011;51077;42.716;23.344;2023-09-07T00:34:46;10.07;;;7.33;;
64667;SDS011;51077;42.716;23.344;2023-09-07T00:37:11;9.03;;;6.93;;
64667;SDS011;51077;42.716;23.344;2023-09-07T00:39:37;10.17;;;7.27;;
64667;SDS011;51077;42.716;23.344;2023-09-07T00:42:02;12.33;;;7.87;;
64667;SDS011;51077;42.716;23.344;2023-09-07T00:44:28;9.83;;;7.03;;
64667;SDS011;51077;42.716;23.344;2023-09-07T00:46:53;9.03;;;7.30;;
64667;SDS011;51077;42.716;23.344;2023-09-07T00:49:19;10.50;;;7.27;;
64667;SDS011;51077;42.716;23.344;2023-09-07T00:51:44;9.40;;;6.90;;
64667;SDS011;51077;42.716;23.344;2023-09-07T00:54:10;8.67;;;7.20;;
64667;SDS011;51077;42.716;23.344;2023-09-07T00:56:36;12.50;;;8.23;;
64667;SDS011;51077;42.716;23.344;2023-09-07T00:59:01;12.43;;;7.30;;
64667;SDS011;51077;42.716;23.344;2023-09-07T01:01:27;9.77;;;7.57;;
64667;SDS011;51077;42.716;23.344;2023-09-07T01:03:54;10.55;;;8.38;;
64667;SDS011;51077;42.716;23.344;2023-09-07T01:06:29;8.73;;;7.55;;
64667;SDS011;51077;42.716;23.344;2023-09-07T01:08:58;11.07;;;7.43;;
64667;SDS011;51077;42.716;23.344;2023-09-07T01:11:35;8.75;;;6.93;;
64667;SDS011;51077;42.716;23.344;2023-09-07T01:14:02;12.13;;;7.72;;
64667;SDS011;51077;42.716;23.344;2023-09-07T01:16:29;13.85;;;7.97;;
64667;SDS011;51077;42.716;23.344;2023-09-07T01:18:55;9.20;;;7.57;;
64667;SDS011;51077;42.716;23.344;2023-09-07T01:21:21;11.60;;;8.10;;
64667;SDS011;51077;42.716;23.344;2023-09-07T01:23:47;9.90;;;8.23;;
64667;SDS011;51077;42.716;23.344;2023-09-07T01:26:13;12.85;;;8.40;;
64667;SDS011;51077;42.716;23.344;2023-09-07T01:28:39;11.33;;;8.50;;
64667;SDS011;51077;42.716;23.344;2023-09-07T01:31:05;13.33;;;8.97;;
64667;SDS011;51077;42.716;23.344;2023-09-07T01:33:34;11.52;;;8.57;;
64667;SDS011;51077;42.716;23.344;2023-09-07T01:36:00;10.77;;;8.60;;
64667;SDS011;51077;42.716;23.344;2023-09-07T01:38:25;10.83;;;8.80;;
64667;SDS011;51077;42.716;23.344;2023-09-07T01:40:50;11.27;;;8.53;;
64667;SDS011;51077;42.716;23.344;2023-09-07T01:43:16;10.60;;;9.13;;
64667;SDS011;51077;42.716;23.344;2023-09-07T01:45:41;9.93;;;8.87;;
64667;SDS011;51077;42.716;23.344;2023-09-07T01:48:10;11.73;;;8.53;;
64667;SDS011;51077;42.716;23.344;2023-09-07T01:50:37;11.45;;;8.80;;
64667;SDS011;51077;42.716;23.344;2023-09-07T01:53:02;13.93;;;9.43;;
64667;SDS011;51077;42.716;23.344;2023-09-07T01:55:31;14.45;;;8.68;;
64667;SDS011;51077;42.716;23.344;2023-09-07T01:57:57;10.40;;;8.50;;
64667;SDS011;51077;42.716;23.344;2023-09-07T02:00:22;11.40;;;8.93;;
64667;SDS011;51077;42.716;23.344;2023-09-07T02:02:48;17.80;;;10.03;;
64667;SDS011;51077;42.716;23.344;2023-09-07T02:05:13;13.90;;;9.40;;
64667;SDS011;51077;42.716;23.344;2023-09-07T02:07:38;11.07;;;8.93;;
64667;SDS011;51077;42.716;23.344;2023-09-07T02:10:04;11.30;;;8.63;;
64667;SDS011;51077;42.716;23.344;2023-09-07T02:12:29;9.63;;;7.87;;
64667;SDS011;51077;42.716;23.344;2023-09-07T02:14:55;12.83;;;9.27;;
64667;SDS011;51077;42.716;23.344;2023-09-07T02:17:21;14.50;;;9.20;;
64667;SDS011;51077;42.716;23.344;2023-09-07T02:19:47;11.40;;;8.57;;
64667;SDS011;51077;42.716;23.344;2023-09-07T02:22:12;10.37;;;9.23;;
64667;SDS011;51077;42.716;23.344;2023-09-07T02:24:37;11.77;;;8.77;;
64667;SDS011;51077;42.716;23.344;2023-09-07T02:27:03;11.07;;;9.07;;
64667;SDS011;51077;42.716;23.344;2023-09-07T02:29:29;11.63;;;8.70;;
64667;SDS011;51077;42.716;23.344;2023-09-07T02:31:54;9.90;;;8.70;;
64667;SDS011;51077;42.716;23.344;2023-09-07T02:34:20;16.20;;;9.50;;
64667;SDS011;51077;42.716;23.344;2023-09-07T02:36:45;13.70;;;9.70;;
64667;SDS011;51077;42.716;23.344;2023-09-07T02:39:10;12.77;;;10.03;;
64667;SDS011;51077;42.716;23.344;2023-09-07T02:41:37;12.20;;;9.07;;
64667;SDS011;51077;42.716;23.344;2023-09-07T02:44:02;12.33;;;8.90;;
64667;SDS011;51077;42.716;23.344;2023-09-07T02:46:28;11.27;;;9.23;;
64667;SDS011;51077;42.716;23.344;2023-09-07T02:48:53;13.43;;;9.20;;
64667;SDS011;51077;42.716;23.344;2023-09-07T02:51:22;10.23;;;8.88;;
64667;SDS011;51077;42.716;23.344;2023-09-07T02:53:47;11.83;;;9.50;;
64667;SDS011;51077;42.716;23.344;2023-09-07T02:56:13;14.57;;;10.10;;
64667;SDS011;51077;42.716;23.344;2023-09-07T02:58:38;12.43;;;9.73;;
64667;SDS011;51077;42.716;23.344;2023-09-07T03:01:07;14.05;;;9.63;;
64667;SDS011;51077;42.716;23.344;2023-09-07T03:03:36;13.50;;;10.60;;
64667;SDS011;51077;42.716;23.344;2023-09-07T03:06:12;12.25;;;9.30;;
64667;SDS011;51077;42.716;23.344;2023-09-07T03:08:39;13.65;;;9.38;;
64667;SDS011;51077;42.716;23.344;2023-09-07T03:11:05;12.05;;;9.38;;
64667;SDS011;51077;42.716;23.344;2023-09-07T03:13:31;14.25;;;9.70;;
64667;SDS011;51077;42.716;23.344;2023-09-07T03:15:57;13.30;;;9.40;;
64667;SDS011;51077;42.716;23.344;2023-09-07T03:18:23;12.98;;;10.05;;
64667;SDS011;51077;42.716;23.344;2023-09-07T03:20:49;15.13;;;10.27;;
64667;SDS011;51077;42.716;23.344;2023-09-07T03:23:15;12.55;;;10.20;;
64667;SDS011;51077;42.716;23.344;2023-09-07T03:25:41;11.47;;;10.10;;
64667;SDS011;51077;42.716;23.344;2023-09-07T03:28:06;11.90;;;9.90;;
64667;SDS011;51077;42.716;23.344;2023-09-07T03:30:32;10.83;;;9.73;;
64667;SDS011;51077;42.716;23.344;2023-09-07T03:32:58;12.43;;;10.75;;
64667;SDS011;51077;42.716;23.344;2023-09-07T03:35:23;13.03;;;10.07;;
64667;SDS011;51077;42.716;23.344;2023-09-07T03:37:49;12.73;;;10.70;;
64667;SDS011;51077;42.716;23.344;2023-09-07T03:40:14;12.00;;;9.80;;
64667;SDS011;51077;42.716;23.344;2023-09-07T03:42:40;13.17;;;10.33;;
64667;SDS011;51077;42.716;23.344;2023-09-07T03:45:05;12.93;;;10.93;;
64667;SDS011;51077;42.716;23.344;2023-09-07T03:47:31;13.17;;;10.53;;
64667;SDS011;51077;42.716;23.344;2023-09-07T03:49:57;13.50;;;10.53;;
64667;SDS011;51077;42.716;23.344;2023-09-07T03:52:23;11.75;;;10.15;;
64667;SDS011;51077;42.716;23.344;2023-09-07T03:54:51;14.93;;;11.10;;
64667;SDS011;51077;42.716;23.344;2023-09-07T03:57:18;12.67;;;11.20;;
64667;SDS011;51077;42.716;23.344;2023-09-07T03:59:44;14.23;;;10.50;;
64667;SDS011;51077;42.716;23.344;2023-09-07T04:02:09;13.57;;;10.73;;
64667;SDS011;51077;42.716;23.344;2023-09-07T04:04:35;11.63;;;10.43;;
64667;SDS011;51077;42.716;23.344;2023-09-07T04:07:00;11.67;;;10.47;;
64667;SDS011;51077;42.716;23.344;2023-09-07T04:09:25;12.43;;;9.97;;
64667;SDS011;51077;42.716;23.344;2023-09-07T04:11:51;13.67;;;10.63;;
64667;SDS011;51077;42.716;23.344;2023-09-07T04:14:16;11.53;;;9.63;;
64667;SDS011;51077;42.716;23.344;2023-09-07T04:16:42;14.40;;;10.43;;
64667;SDS011;51077;42.716;23.344;2023-09-07T04:19:07;13.50;;;10.67;;
64667;SDS011;51077;42.716;23.344;2023-09-07T04:21:33;14.73;;;10.30;;
64667;SDS011;51077;42.716;23.344;2023-09-07T04:23:58;14.03;;;10.90;;
64667;SDS011;51077;42.716;23.344;2023-09-07T04:26:23;11.97;;;10.13;;
64667;SDS011;51077;42.716;23.344;2023-09-07T04:28:49;12.93;;;10.60;;
64667;SDS011;51077;42.716;23.344;2023-09-07T04:31:14;15.53;;;11.77;;
64667;SDS011;51077;42.716;23.344;2023-09-07T04:33:39;13.53;;;9.80;;
64667;SDS011;51077;42.716;23.344;2023-09-07T04:36:12;12.10;;;10.13;;
64667;SDS011;51077;42.716;23.344;2023-09-07T04:38:38;15.25;;;10.20;;
64667;SDS011;51077;42.716;23.344;2023-09-07T04:41:05;12.95;;;10.73;;
64667;SDS011;51077;42.716;23.344;2023-09-07T04:43:31;12.02;;;10.40;;
64667;SDS011;51077;42.716;23.344;2023-09-07T04:45:57;15.90;;;10.83;;
64667;SDS011;51077;42.716;23.344;2023-09-07T04:48:22;14.70;;;11.23;;
64667;SDS011;51077;42.716;23.344;2023-09-07T04:50:47;13.17;;;10.83;;
64667;SDS011;51077;42.716;23.344;2023-09-07T04:53:13;13.33;;;11.03;;
64667;SDS011;51077;42.716;23.344;2023-09-07T04:55:38;16.87;;;11.27;;
64667;SDS011;51077;42.716;23.344;2023-09-07T04:58:03;13.83;;;11.10;;
64667;SDS011;51077;42.716;23.344;2023-09-07T05:00:29;13.60;;;11.87;;
64667;SDS011;51077;42.716;23.344;2023-09-07T05:02:54;13.00;;;10.53;;
64667;SDS011;51077;42.716;23.344;2023-09-07T05:05:20;14.30;;;10.70;;
64667;SDS011;51077;42.716;23.344;2023-09-07T05:07:45;13.33;;;10.50;;
64667;SDS011;51077;42.716;23.344;2023-09-07T05:10:10;14.30;;;10.17;;
64667;SDS011;51077;42.716;23.344;2023-09-07T05:12:37;15.75;;;11.65;;
64667;SDS011;51077;42.716;23.344;2023-09-07T05:15:03;12.30;;;10.80;;
64667;SDS011;51077;42.716;23.344;2023-09-07T05:17:31;14.95;;;11.15;;
64667;SDS011;51077;42.716;23.344;2023-09-07T05:19:57;15.23;;;11.70;;
64667;SDS011;51077;42.716;23.344;2023-09-07T05:22:22;13.53;;;11.10;;
64667;SDS011;51077;42.716;23.344;2023-09-07T05:24:48;15.70;;;11.33;;
64667;SDS011;51077;42.716;23.344;2023-09-07T05:27:13;12.87;;;11.43;;
64667;SDS011;51077;42.716;23.344;2023-09-07T05:29:38;13.53;;;10.90;;
64667;SDS011;51077;42.716;23.344;2023-09-07T05:32:04;14.07;;;9.97;;
64667;SDS011;51077;42.716;23.344;2023-09-07T05:34:31;14.88;;;11.48;;
64667;SDS011;51077;42.716;23.344;2023-09-07T05:36:56;15.40;;;11.50;;
64667;SDS011;51077;42.716;23.344;2023-09-07T05:39:21;13.07;;;11.27;;
64667;SDS011;51077;42.716;23.344;2023-09-07T05:41:49;13.07;;;10.80;;
64667;SDS011;51077;42.716;23.344;2023-09-07T05:44:14;14.75;;;12.02;;
64667;SDS011;51077;42.716;23.344;2023-09-07T05:46:40;14.63;;;12.40;;
64667;SDS011;51077;42.716;23.344;2023-09-07T05:49:05;13.67;;;12.07;;
64667;SDS011;51077;42.716;23.344;2023-09-07T05:51:30;13.30;;;11.17;;
64667;SDS011;51077;42.716;23.344;2023-09-07T05:53:56;16.30;;;11.30;;
64667;SDS011;51077;42.716;23.344;2023-09-07T05:56:21;11.60;;;10.40;;
64667;SDS011;51077;42.716;23.344;2023-09-07T05:58:47;12.47;;;9.90;;
64667;SDS011;51077;42.716;23.344;2023-09-07T06:01:12;11.80;;;9.77;;
64667;SDS011;51077;42.716;23.344;2023-09-07T06:03:38;16.77;;;10.23;;
64667;SDS011;51077;42.716;23.344;2023-09-07T06:06:04;12.60;;;10.27;;
64667;SDS011;51077;42.716;23.344;2023-09-07T06:08:29;11.83;;;9.57;;
64667;SDS011;51077;42.716;23.344;2023-09-07T06:10:55;12.63;;;10.33;;
64667;SDS011;51077;42.716;23.344;2023-09-07T06:13:20;11.97;;;9.93;;
64667;SDS011;51077;42.716;23.344;2023-09-07T06:15:46;14.93;;;10.17;;
64667;SDS011;51077;42.716;23.344;2023-09-07T06:18:11;13.40;;;9.57;;
64667;SDS011;51077;42.716;23.344;2023-09-07T06:20:36;13.83;;;9.87;;
64667;SDS011;51077;42.716;23.344;2023-09-07T06:23:02;10.70;;;9.37;;
64667;SDS011;51077;42.716;23.344;2023-09-07T06:25:27;12.07;;;9.23;;
64667;SDS011;51077;42.716;23.344;2023-09-07T06:27:53;11.67;;;9.47;;
64667;SDS011;51077;42.716;23.344;2023-09-07T06:30:18;12.70;;;9.57;;
64667;SDS011;51077;42.716;23.344;2023-09-07T06:32:44;11.95;;;9.13;;
64667;SDS011;51077;42.716;23.344;2023-09-07T06:35:10;9.60;;;8.60;;
64667;SDS011;51077;42.716;23.344;2023-09-07T06:37:36;9.13;;;7.77;;
64667;SDS011;51077;42.716;23.344;2023-09-07T06:40:05;13.07;;;7.82;;
64667;SDS011;51077;42.716;23.344;2023-09-07T06:42:31;9.15;;;7.35;;
64667;SDS011;51077;42.716;23.344;2023-09-07T06:44:56;8.43;;;7.17;;
64667;SDS011;51077;42.716;23.344;2023-09-07T06:47:22;9.20;;;7.13;;
64667;SDS011;51077;42.716;23.344;2023-09-07T06:49:47;8.00;;;7.20;;
64667;SDS011;51077;42.716;23.344;2023-09-07T06:52:13;9.98;;;7.25;;
64667;SDS011;51077;42.716;23.344;2023-09-07T06:54:40;10.10;;;7.22;;
64667;SDS011;51077;42.716;23.344;2023-09-07T06:57:09;10.83;;;7.33;;
64667;SDS011;51077;42.716;23.344;2023-09-07T06:59:34;10.60;;;7.68;;
64667;SDS011;51077;42.716;23.344;2023-09-07T07:02:00;9.63;;;7.40;;
64667;SDS011;51077;42.716;23.344;2023-09-07T07:04:25;8.10;;;7.03;;
64667;SDS011;51077;42.716;23.344;2023-09-07T07:06:51;9.13;;;6.67;;
64667;SDS011;51077;42.716;23.344;2023-09-07T07:09:16;8.73;;;6.13;;
64667;SDS011;51077;42.716;23.344;2023-09-07T07:11:42;9.67;;;5.97;;
64667;SDS011;51077;42.716;23.344;2023-09-07T07:14:08;10.00;;;6.43;;
64667;SDS011;51077;42.716;23.344;2023-09-07T07:16:34;10.35;;;6.47;;
64667;SDS011;51077;42.716;23.344;2023-09-07T07:18:59;8.93;;;6.30;;
64667;SDS011;51077;42.716;23.344;2023-09-07T07:21:25;9.43;;;6.37;;
64667;SDS011;51077;42.716;23.344;2023-09-07T07:23:50;8.47;;;6.33;;
64667;SDS011;51077;42.716;23.344;2023-09-07T07:26:16;12.33;;;6.53;;
64667;SDS011;51077;42.716;23.344;2023-09-07T07:28:42;11.18;;;6.20;;
64667;SDS011;51077;42.716;23.344;2023-09-07T07:31:08;8.93;;;6.70;;
64667;SDS011;51077;42.716;23.344;2023-09-07T07:33:34;11.18;;;6.70;;
64667;SDS011;51077;42.716;23.344;2023-09-07T07:36:00;10.00;;;6.00;;
64667;SDS011;51077;42.716;23.344;2023-09-07T07:38:25;8.83;;;6.00;;
64667;SDS011;51077;42.716;23.344;2023-09-07T07:40:51;10.37;;;6.50;;
64667;SDS011;51077;42.716;23.344;2023-09-07T07:43:18;9.13;;;6.10;;
64667;SDS011;51077;42.716;23.344;2023-09-07T07:45:43;10.73;;;6.37;;
64667;SDS011;51077;42.716;23.344;2023-09-07T07:48:09;12.50;;;6.27;;
64667;SDS011;51077;42.716;23.344;2023-09-07T07:50:37;9.53;;;5.90;;
64667;SDS011;51077;42.716;23.344;2023-09-07T07:53:06;7.85;;;5.78;;
64667;SDS011;51077;42.716;23.344;2023-09-07T07:55:36;8.30;;;6.00;;
64667;SDS011;51077;42.716;23.344;2023-09-07T07:58:06;9.15;;;6.40;;
64667;SDS011;51077;42.716;23.344;2023-09-07T08:00:35;8.13;;;5.53;;
64667;SDS011;51077;42.716;23.344;2023-09-07T08:03:01;8.77;;;5.47;;
64667;SDS011;51077;42.716;23.344;2023-09-07T08:05:28;8.38;;;5.40;;
64667;SDS011;51077;42.716;23.344;2023-09-07T08:07:54;8.43;;;6.18;;
64667;SDS011;51077;42.716;23.344;2023-09-07T08:10:20;10.13;;;6.20;;
64667;SDS011;51077;42.716;23.344;2023-09-07T08:12:45;8.33;;;5.40;;
64667;SDS011;51077;42.716;23.344;2023-09-07T08:15:10;8.07;;;5.40;;
64667;SDS011;51077;42.716;23.344;2023-09-07T08:17:36;9.60;;;4.60;;
64667;SDS011;51077;42.716;23.344;2023-09-07T08:20:02;11.27;;;4.75;;
64667;SDS011;51077;42.716;23.344;2023-09-07T08:22:28;8.00;;;4.70;;
64667;SDS011;51077;42.716;23.344;2023-09-07T08:24:54;6.93;;;4.33;;
64667;SDS011;51077;42.716;23.344;2023-09-07T08:27:20;8.80;;;4.30;;
64667;SDS011;51077;42.716;23.344;2023-09-07T08:29:46;7.05;;;3.88;;
64667;SDS011;51077;42.716;23.344;2023-09-07T08:32:17;6.07;;;3.88;;
64667;SDS011;51077;42.716;23.344;2023-09-07T08:34:42;6.20;;;3.80;;
64667;SDS011;51077;42.716;23.344;2023-09-07T08:37:08;5.83;;;4.17;;
64667;SDS011;51077;42.716;23.344;2023-09-07T08:39:36;6.80;;;3.70;;
64667;SDS011;51077;42.716;23.344;2023-09-07T08:42:04;7.15;;;4.35;;
64667;SDS011;51077;42.716;23.344;2023-09-07T08:44:30;5.57;;;3.70;;
64667;SDS011;51077;42.716;23.344;2023-09-07T08:46:59;6.25;;;3.90;;
64667;SDS011;51077;42.716;23.344;2023-09-07T08:49:26;4.90;;;3.67;;
64667;SDS011;51077;42.716;23.344;2023-09-07T08:51:52;7.63;;;3.87;;
64667;SDS011;51077;42.716;23.344;2023-09-07T08:54:19;7.70;;;3.97;;
64667;SDS011;51077;42.716;23.344;2023-09-07T08:56:45;8.52;;;4.78;;
64667;SDS011;51077;42.716;23.344;2023-09-07T08:59:11;8.63;;;3.85;;
64667;SDS011;51077;42.716;23.344;2023-09-07T09:01:37;5.60;;;3.77;;
64667;SDS011;51077;42.716;23.344;2023-09-07T09:04:03;6.17;;;3.80;;
64667;SDS011;51077;42.716;23.344;2023-09-07T09:06:28;5.93;;;3.70;;
64667;SDS011;51077;42.716;23.344;2023-09-07T09:08:55;6.53;;;3.63;;
64667;SDS011;51077;42.716;23.344;2023-09-07T09:11:22;7.50;;;4.30;;
64667;SDS011;51077;42.716;23.344;2023-09-07T09:13:49;6.87;;;3.53;;
64667;SDS011;51077;42.716;23.344;2023-09-07T09:16:16;6.37;;;4.10;;
64667;SDS011;51077;42.716;23.344;2023-09-07T09:18:52;7.30;;;4.10;;
64667;SDS011;51077;42.716;23.344;2023-09-07T09:21:21;7.97;;;3.87;;
64667;SDS011;51077;42.716;23.344;2023-09-07T09:23:53;5.47;;;3.57;;
64667;SDS011;51077;42.716;23.344;2023-09-07T09:26:22;5.37;;;3.80;;
64667;SDS011;51077;42.716;23.344;2023-09-07T09:28:48;7.23;;;3.73;;
64667;SDS011;51077;42.716;23.344;2023-09-07T09:31:16;5.10;;;3.77;;
64667;SDS011;51077;42.716;23.344;2023-09-07T09:33:42;7.03;;;3.57;;
64667;SDS011;51077;42.716;23.344;2023-09-07T09:36:12;6.00;;;3.97;;
64667;SDS011;51077;42.716;23.344;2023-09-07T09:38:38;4.47;;;3.60;;
64667;SDS011;51077;42.716;23.344;2023-09-07T09:41:03;5.07;;;3.40;;
64667;SDS011;51077;42.716;23.344;2023-09-07T09:43:29;10.47;;;3.50;;
64667;SDS011;51077;42.716;23.344;2023-09-07T09:45:54;9.77;;;3.57;;
64667;SDS011;51077;42.716;23.344;2023-09-07T09:48:21;8.27;;;3.60;;
64667;SDS011;51077;42.716;23.344;2023-09-07T09:50:47;4.40;;;3.30;;
64667;SDS011;51077;42.716;23.344;2023-09-07T09:53:14;5.10;;;4.00;;
64667;SDS011;51077;42.716;23.344;2023-09-07T09:55:43;7.13;;;3.57;;
64667;SDS011;51077;42.716;23.344;2023-09-07T09:58:12;4.13;;;3.60;;
64667;SDS011;51077;42.716;23.344;2023-09-07T10:00:49;9.17;;;3.77;;
64667;SDS011;51077;42.716;23.344;2023-09-07T10:03:24;7.03;;;3.57;;
64667;SDS011;51077;42.716;23.344;2023-09-07T10:05:53;9.47;;;4.00;;
64667;SDS011;51077;42.716;23.344;2023-09-07T10:08:19;4.80;;;3.60;;
64667;SDS011;51077;42.716;23.344;2023-09-07T10:10:48;4.87;;;3.70;;
64667;SDS011;51077;42.716;23.344;2023-09-07T10:13:14;5.80;;;3.43;;
64667;SDS011;51077;42.716;23.344;2023-09-07T10:15:41;5.73;;;3.70;;
64667;SDS011;51077;42.716;23.344;2023-09-07T10:23:33;6.60;;;4.10;;
64667;SDS011;51077;42.716;23.344;2023-09-07T10:26:04;6.10;;;3.53;;
64667;SDS011;51077;42.716;23.344;2023-09-07T10:28:31;9.13;;;3.80;;
64667;SDS011;51077;42.716;23.344;2023-09-07T10:31:06;7.03;;;4.40;;
64667;SDS011;51077;42.716;23.344;2023-09-07T10:33:38;4.97;;;3.70;;
64667;SDS011;51077;42.716;23.344;2023-09-07T10:36:04;5.33;;;3.80;;
64667;SDS011;51077;42.716;23.344;2023-09-07T10:38:33;6.10;;;4.00;;
64667;SDS011;51077;42.716;23.344;2023-09-07T10:41:00;6.60;;;3.88;;
64667;SDS011;51077;42.716;23.344;2023-09-07T10:43:30;7.75;;;4.28;;
64667;SDS011;51077;42.716;23.344;2023-09-07T10:45:57;7.47;;;4.07;;
64667;SDS011;51077;42.716;23.344;2023-09-07T10:48:28;6.72;;;3.70;;
64667;SDS011;51077;42.716;23.344;2023-09-07T10:50:55;8.95;;;3.85;;
64667;SDS011;51077;42.716;23.344;2023-09-07T10:53:29;5.10;;;3.95;;
64667;SDS011;51077;42.716;23.344;2023-09-07T10:56:05;5.63;;;3.75;;
64667;SDS011;51077;42.716;23.344;2023-09-07T10:58:34;6.72;;;3.25;;
64667;SDS011;51077;42.716;23.344;2023-09-07T11:01:01;5.50;;;3.08;;
64667;SDS011;51077;42.716;23.344;2023-09-07T11:03:30;4.53;;;3.10;;
64667;SDS011;51077;42.716;23.344;2023-09-07T11:06:03;4.77;;;3.23;;
64667;SDS011;51077;42.716;23.344;2023-09-07T11:08:33;4.05;;;3.20;;
64667;SDS011;51077;42.716;23.344;2023-09-07T11:11:00;4.95;;;2.95;;
64667;SDS011;51077;42.716;23.344;2023-09-07T11:13:29;4.95;;;3.08;;
64667;SDS011;51077;42.716;23.344;2023-09-07T11:15:56;4.60;;;3.28;;
64667;SDS011;51077;42.716;23.344;2023-09-07T11:18:23;6.47;;;3.13;;
64667;SDS011;51077;42.716;23.344;2023-09-07T11:20:50;4.88;;;2.90;;
64667;SDS011;51077;42.716;23.344;2023-09-07T11:23:20;5.47;;;3.22;;
64667;SDS011;51077;42.716;23.344;2023-09-07T11:25:47;3.92;;;2.95;;
64667;SDS011;51077;42.716;23.344;2023-09-07T11:28:14;7.63;;;2.97;;
64667;SDS011;51077;42.716;23.344;2023-09-07T11:30:51;5.13;;;3.00;;
64667;SDS011;51077;42.716;23.344;2023-09-07T11:33:30;4.93;;;3.08;;
64667;SDS011;51077;42.716;23.344;2023-09-07T11:35:56;6.55;;;2.85;;
64667;SDS011;51077;42.716;23.344;2023-09-07T11:38:22;5.23;;;3.00;;
64667;SDS011;51077;42.716;23.344;2023-09-07T11:40:48;6.83;;;3.33;;
64667;SDS011;51077;42.716;23.344;2023-09-07T11:43:13;3.90;;;2.90;;
64667;SDS011;51077;42.716;23.344;2023-09-07T11:45:40;5.55;;;3.40;;
64667;SDS011;51077;42.716;23.344;2023-09-07T11:48:07;6.75;;;2.92;;
64667;SDS011;51077;42.716;23.344;2023-09-07T11:50:34;5.65;;;3.30;;
64667;SDS011;51077;42.716;23.344;2023-09-07T11:53:00;3.85;;;2.72;;
64667;SDS011;51077;42.716;23.344;2023-09-07T11:55:26;5.30;;;2.80;;
64667;SDS011;51077;42.716;23.344;2023-09-07T11:57:51;5.57;;;2.87;;
64667;SDS011;51077;42.716;23.344;2023-09-07T12:00:17;4.47;;;2.77;;
64667;SDS011;51077;42.716;23.344;2023-09-07T12:02:42;5.87;;;3.80;;
64667;SDS011;51077;42.716;23.344;2023-09-07T12:05:08;7.30;;;3.07;;
64667;SDS011;51077;42.716;23.344;2023-09-07T12:07:34;4.30;;;3.20;;
64667;SDS011;51077;42.716;23.344;2023-09-07T12:10:03;3.47;;;2.83;;
64667;SDS011;51077;42.716;23.344;2023-09-07T12:12:29;4.33;;;3.00;;
64667;SDS011;51077;42.716;23.344;2023-09-07T12:14:54;4.57;;;3.20;;
64667;SDS011;51077;42.716;23.344;2023-09-07T12:17:21;5.30;;;3.10;;
64667;SDS011;51077;42.716;23.344;2023-09-07T12:19:47;5.28;;;2.90;;
64667;SDS011;51077;42.716;23.344;2023-09-07T12:22:12;5.37;;;3.13;;
64667;SDS011;51077;42.716;23.344;2023-09-07T12:24:38;3.67;;;2.83;;
64667;SDS011;51077;42.716;23.344;2023-09-07T12:27:06;4.40;;;3.38;;
64667;SDS011;51077;42.716;23.344;2023-09-07T12:29:31;9.77;;;2.80;;
64667;SDS011;51077;42.716;23.344;2023-09-07T12:31:57;4.80;;;2.77;;
64667;SDS011;51077;42.716;23.344;2023-09-07T12:34:23;6.87;;;3.00;;
64667;SDS011;51077;42.716;23.344;2023-09-07T12:36:49;5.60;;;3.03;;
64667;SDS011;51077;42.716;23.344;2023-09-07T12:39:14;5.10;;;3.00;;
64667;SDS011;51077;42.716;23.344;2023-09-07T12:41:40;6.40;;;3.17;;
64667;SDS011;51077;42.716;23.344;2023-09-07T12:44:06;3.70;;;2.88;;
64667;SDS011;51077;42.716;23.344;2023-09-07T12:46:32;4.63;;;2.70;;
64667;SDS011;51077;42.716;23.344;2023-09-07T12:48:57;4.93;;;2.70;;
64667;SDS011;51077;42.716;23.344;2023-09-07T12:51:23;3.77;;;2.50;;
64667;SDS011;51077;42.716;23.344;2023-09-07T12:53:48;4.00;;;2.60;;
64667;SDS011;51077;42.716;23.344;2023-09-07T12:56:14;5.47;;;3.10;;
64667;SDS011;51077;42.716;23.344;2023-09-07T12:58:40;6.05;;;3.08;;
64667;SDS011;51077;42.716;23.344;2023-09-07T13:01:06;4.32;;;3.25;;
64667;SDS011;51077;42.716;23.344;2023-09-07T13:03:34;5.72;;;2.90;;
64667;SDS011;51077;42.716;23.344;2023-09-07T13:06:01;5.50;;;3.20;;
64667;SDS011;51077;42.716;23.344;2023-09-07T13:08:27;6.38;;;3.10;;
64667;SDS011;51077;42.716;23.344;2023-09-07T13:10:54;5.43;;;2.83;;
64667;SDS011;51077;42.716;23.344;2023-09-07T13:13:20;5.77;;;3.13;;
64667;SDS011;51077;42.716;23.344;2023-09-07T13:15:47;5.15;;;2.83;;
64667;SDS011;51077;42.716;23.344;2023-09-07T13:18:12;5.50;;;2.77;;
64667;SDS011;51077;42.716;23.344;2023-09-07T13:20:38;5.20;;;3.27;;
64667;SDS011;51077;42.716;23.344;2023-09-07T13:23:04;8.98;;;3.30;;
64667;SDS011;51077;42.716;23.344;2023-09-07T13:25:30;4.40;;;2.87;;
64667;SDS011;51077;42.716;23.344;2023-09-07T13:27:55;6.23;;;3.27;;
64667;SDS011;51077;42.716;23.344;2023-09-07T13:30:21;6.50;;;3.77;;
64667;SDS011;51077;42.716;23.344;2023-09-07T13:32:47;6.80;;;2.67;;
64667;SDS011;51077;42.716;23.344;2023-09-07T13:35:15;5.40;;;3.08;;
64667;SDS011;51077;42.716;23.344;2023-09-07T13:37:40;4.30;;;3.20;;
64667;SDS011;51077;42.716;23.344;2023-09-07T13:40:06;7.63;;;3.10;;
64667;SDS011;51077;42.716;23.344;2023-09-07T13:42:32;4.97;;;2.72;;
64667;SDS011;51077;42.716;23.344;2023-09-07T13:44:58;7.53;;;3.13;;
64667;SDS011;51077;42.716;23.344;2023-09-07T13:47:24;4.47;;;3.13;;
64667;SDS011;51077;42.716;23.344;2023-09-07T13:49:49;8.67;;;3.40;;
64667;SDS011;51077;42.716;23.344;2023-09-07T13:52:14;5.57;;;3.13;;
64667;SDS011;51077;42.716;23.344;2023-09-07T13:54:40;5.77;;;3.50;;
64667;SDS011;51077;42.716;23.344;2023-09-07T13:57:05;5.87;;;2.80;;
64667;SDS011;51077;42.716;23.344;2023-09-07T13:59:30;5.20;;;3.10;;
64667;SDS011;51077;42.716;23.344;2023-09-07T14:01:59;5.00;;;3.25;;
64667;SDS011;51077;42.716;23.344;2023-09-07T14:04:25;4.60;;;3.03;;
64667;SDS011;51077;42.716;23.344;2023-09-07T14:06:50;5.27;;;3.20;;
64667;SDS011;51077;42.716;23.344;2023-09-07T14:09:16;4.83;;;3.17;;
64667;SDS011;51077;42.716;23.344;2023-09-07T14:11:41;7.33;;;3.23;;
64667;SDS011;51077;42.716;23.344;2023-09-07T14:14:06;4.57;;;2.80;;
64667;SDS011;51077;42.716;23.344;2023-09-07T14:16:32;4.97;;;3.07;;
64667;SDS011;51077;42.716;23.344;2023-09-07T14:18:58;6.38;;;3.53;;
64667;SDS011;51077;42.716;23.344;2023-09-07T14:21:24;5.27;;;3.70;;
64667;SDS011;51077;42.716;23.344;2023-09-07T14:23:49;6.90;;;3.33;;
64667;SDS011;51077;42.716;23.344;2023-09-07T14:26:15;7.30;;;3.20;;